Island Princess — ZCDG4 — position and weather

sailwx.info

Track history (hours):
 
Tides and Currents Weather Stations Pressure Air Temp Water Temp Dewpoint Dewpoint Depression Visibility Wind Speed Wind Dir Waves Ship Positions

Island Princess

Operator: Princess Cruises

Last reported at 2019-Jul-22 14:30 UTC. Time now 2019-Jul-22 14:40 UTC.
Position N 58°30' W 136°03'.

Type: Passenger vessel. MMSI: 310384000.

Date/timePositionNaut miles runAvg speedWind from/ knotsBaromVisibWave heightAir tempDewpointWater temp
2019-Jul-22 14:30N 58°30' W 136°03'510.9
2019-Jul-22 14:00N 58°26' W 135°58'510.5
2019-Jul-22 13:30N 58°21' W 135°57'612.3
2019-Jul-22 13:00N 58°18' W 135°46'612.3
2019-Jul-22 12:30N 58°16' W 135°35'712.4
2019-Jul-22 11:58N 58°14' W 135°24'36 7.2
2019-Jul-22 07:00N 58°48' W 135°06'19 0.9 1021.7 5.4 14.012.315.0
2019-Jul-21 09:00N 58°30' W 134°54'24 0.9 300 / 31020.910.8 13.012.1
2019-Jul-20 06:35N 58°09' W 135°15'111.9
2019-Jul-20 06:29N 58°09' W 135°17'6 2.0
2019-Jul-20 03:27N 58°08' W 135°28'0 0.0
2019-Jul-20 02:57N 58°08' W 135°28'0 0.0
2019-Jul-20 02:21N 58°08' W 135°28'25711.3
2019-Jul-19 03:41N 54°22' W 131°46'422.4
2019-Jul-19 03:30N 54°22' W 131°39'1121.8
2019-Jul-19 03:00N 54°21' W 131°21'1020.5
2019-Jul-19 02:31N 54°18' W 131°04'1122.1
2019-Jul-19 02:00N 54°07' W 131°00'175.9
2019-Jul-19 02:00N 54°06' W 131°00'1019.8 230 / 101015.710.8 17.511.615.0
2019-Jul-19 01:30N 53°57' W 130°57'1020.8
2019-Jul-19 01:00N 53°46' W 130°53'1220.4
2019-Jul-19 00:24N 53°34' W 130°49'819.9
2019-Jul-19 00:00N 53°27' W 130°46'1220.6
2019-Jul-18 23:24N 53°15' W 130°38'8520.4
2019-Jul-18 19:13N 52°04' W 129°22'519.2
2019-Jul-18 18:57N 51°60' W 129°17'919.2
2019-Jul-18 18:30N 51°53' W 129°08'1019.6
2019-Jul-18 18:00N 51°45' W 128°59'1019.8
2019-Jul-18 17:30N 51°37' W 128°50'1019.8
2019-Jul-18 17:00N 51°29' W 128°41'1019.7
2019-Jul-18 16:30N 51°21' W 128°30'1019.7
2019-Jul-18 16:00N 51°14' W 128°20'1020.1
2019-Jul-18 15:30N 51°08' W 128°08'1020.4
2019-Jul-18 15:00N 51°02' W 127°54'815.1
2019-Jul-18 14:30N 50°57' W 127°45'1020.6
2019-Jul-18 14:00N 50°51' W 127°31'1121.5
2019-Jul-18 13:30N 50°47' W 127°16'1121.3
2019-Jul-18 13:00N 50°43' W 127°00'1020.3
2019-Jul-18 12:30N 50°37' W 126°47'914.7
2019-Jul-18 11:56N 50°31' W 126°38'3517.2
2019-Jul-18 09:55N 50°22' W 125°45'818.1
2019-Jul-18 09:29N 50°22' W 125°33'714.6
2019-Jul-18 09:00N 50°17' W 125°24'815.6
2019-Jul-18 08:30N 50°10' W 125°22'510.8
2019-Jul-18 08:00N 50°05' W 125°17'612.1
2019-Jul-18 07:30N 49°60' W 125°12'611.5
2019-Jul-18 07:00N 49°56' W 125°06'612.2
2019-Jul-18 06:30N 49°52' W 124°59'612.3
2019-Jul-18 06:00N 49°48' W 124°52'612.4
2019-Jul-18 05:30N 49°44' W 124°45'713.5
2019-Jul-18 05:00N 49°38' W 124°40'713.6
2019-Jul-18 04:30N 49°33' W 124°33'713.4
2019-Jul-18 04:00N 49°28' W 124°25'713.2
2019-Jul-18 03:30N 49°25' W 124°16'612.7
2019-Jul-18 03:00N 49°23' W 124°07'713.9
2019-Jul-18 02:31N 49°21' W 123°57'713.9
2019-Jul-18 02:01N 49°19' W 123°46'713.9
2019-Jul-18 01:30N 49°19' W 123°36'714.1
2019-Jul-18 01:00N 49°19' W 123°25'713.5
2019-Jul-18 00:30N 49°19' W 123°14'510.2
2019-Jul-18 00:00N 49°18' W 123°07'1 1.6
2019-Jul-17 23:26N 49°17' W 123°06'0 0.0
2019-Jul-17 22:56N 49°17' W 123°06'0 0.0
2019-Jul-17 22:26N 49°17' W 123°06'0 0.0
2019-Jul-17 21:56N 49°17' W 123°06'0 0.0
2019-Jul-17 21:20N 49°17' W 123°06'0 0.0
2019-Jul-17 20:56N 49°17' W 123°06'0 0.0
2019-Jul-17 20:26N 49°17' W 123°06'0 0.0
2019-Jul-17 19:58N 49°17' W 123°06'0 0.0
2019-Jul-17 19:28N 49°17' W 123°06'0 0.0
2019-Jul-17 18:58N 49°17' W 123°06'0 0.0
2019-Jul-17 18:28N 49°17' W 123°06'0 0.0
2019-Jul-17 17:58N 49°17' W 123°06'0 0.0
2019-Jul-17 17:28N 49°17' W 123°06'0 0.0
2019-Jul-17 16:58N 49°17' W 123°06'0 0.0
2019-Jul-17 16:28N 49°17' W 123°06'0 0.0
2019-Jul-17 15:58N 49°17' W 123°06'0 0.0
2019-Jul-17 15:28N 49°17' W 123°06'0 0.0
2019-Jul-17 14:58N 49°17' W 123°06'0 0.0
2019-Jul-17 14:28N 49°17' W 123°06'0 0.0
2019-Jul-17 14:00N 49°17' W 123°06'0 0.3
2019-Jul-17 13:30N 49°17' W 123°06'3 6.5
2019-Jul-17 13:00N 49°19' W 123°10'611.1
2019-Jul-17 12:30N 49°18' W 123°19'612.7
2019-Jul-17 12:00N 49°16' W 123°28'5 9.9
2019-Jul-17 11:30N 49°18' W 123°35'4 9.0
2019-Jul-17 11:01N 49°19' W 123°42'5 8.8
2019-Jul-17 10:30N 49°21' W 123°48'4 9.0
2019-Jul-17 10:01N 49°22' W 123°55'4 8.7
2019-Jul-17 09:30N 49°23' W 124°01'5 9.1
2019-Jul-17 09:00N 49°24' W 124°08'5 9.1
2019-Jul-17 08:30N 49°25' W 124°15'5 9.3
2019-Jul-17 08:00N 49°27' W 124°22'5 9.7
2019-Jul-17 07:30N 49°29' W 124°28'5 9.4
2019-Jul-17 07:00N 49°32' W 124°33'5 9.4
2019-Jul-17 06:30N 49°36' W 124°37'5 9.1
2019-Jul-17 06:01N 49°40' W 124°42'4 8.2
2019-Jul-17 05:30N 49°43' W 124°46'4 8.1
2019-Jul-17 05:00N 49°46' W 124°51'4 8.4
2019-Jul-17 04:30N 49°48' W 124°55'4 9.0
2019-Jul-17 04:00N 49°52' W 125°00'4 8.6
2019-Jul-17 03:30N 49°55' W 125°05'5 9.3
2019-Jul-17 02:59N 49°58' W 125°10'5 9.6
2019-Jul-17 02:30N 50°02' W 125°13'612.9
2019-Jul-17 02:01N 50°07' W 125°20'714.7
2019-Jul-17 01:30N 50°14' W 125°23'1715.7
2019-Jul-17 00:27N 50°22' W 125°45'7219.5
2019-Jul-16 20:44N 50°51' W 127°30'621.0
2019-Jul-16 20:26N 50°54' W 127°39'716.2
2019-Jul-16 20:00N 50°59' W 127°47'4 8.9
2019-Jul-16 19:30N 51°01' W 127°53'4 8.8
2019-Jul-16 19:00N 51°04' W 127°59'5 9.3
2019-Jul-16 18:30N 51°06' W 128°05'611.3
2019-Jul-16 18:01N 51°09' W 128°12'713.6
2019-Jul-16 17:30N 51°13' W 128°21'714.7
2019-Jul-16 17:00N 51°18' W 128°30'816.0
2019-Jul-16 16:30N 51°23' W 128°41'917.5
2019-Jul-16 16:00N 51°29' W 128°51'917.1
2019-Jul-16 15:30N 51°37' W 128°52'917.1
2019-Jul-16 15:00N 51°45' W 128°57'817.0
2019-Jul-16 14:30N 51°52' W 129°05'917.4
2019-Jul-16 14:00N 51°58' W 129°14'5299.2
2019-Jul-16 14:00N 51°54' W 129°12'1327.5 180 / 101016.710.8 16.014.417.0
2019-Jul-16 13:30N 52°05' W 129°24'918.5
2019-Jul-16 13:00N 52°12' W 129°34'918.6
2019-Jul-16 12:30N 52°19' W 129°44'1019.5
2019-Jul-16 12:00N 52°27' W 129°53'1121.5
2019-Jul-16 11:30N 52°36' W 130°02'1121.3
2019-Jul-16 11:00N 52°46' W 130°12'2820.2
2019-Jul-16 09:37N 53°10' W 130°34'319.6
2019-Jul-16 09:28N 53°13' W 130°37'920.4
2019-Jul-16 09:00N 53°21' W 130°44'1121.1
2019-Jul-16 08:30N 53°31' W 130°49'1020.9
2019-Jul-16 08:00N 53°41' W 130°53'1020.7
2019-Jul-16 07:30N 53°51' W 130°58'1020.6
2019-Jul-16 07:01N 54°01' W 131°01'1121.1
2019-Jul-16 06:30N 54°12' W 131°02'1121.9
2019-Jul-16 06:00N 54°22' W 131°07'1121.4
2019-Jul-16 05:30N 54°32' W 131°15'815.9
2019-Jul-16 05:00N 54°40' W 131°15'918.5
2019-Jul-16 04:30N 54°48' W 131°10'1917.4
2019-Jul-16 03:25N 55°07' W 131°09'65 4.5
2019-Jul-15 13:00N 55°54' W 132°30'6711.2 260 / 71018.5 5.4 15.013.717.0
2019-Jul-15 07:00N 56°24' W 134°18'7518.7 190 / 81021.8 5.4 13.011.312.0
2019-Jul-15 03:00N 57°36' W 133°42'60 1.3 310 / 41018.310.8 13.5 9.913.0
2019-Jul-13 06:22N 58°09' W 135°16'410.9
2019-Jul-13 06:00N 58°11' W 135°22'611.7
2019-Jul-13 05:30N 58°14' W 135°32'510.9
2019-Jul-13 05:00N 58°17' W 135°41'510.2
2019-Jul-13 04:30N 58°19' W 135°50'510.4
2019-Jul-13 04:00N 58°22' W 135°57'5 9.3
2019-Jul-13 03:30N 58°27' W 136°00'4 8.0
2019-Jul-13 03:00N 58°30' W 136°04'611.9
2019-Jul-13 02:30N 58°36' W 136°04'612.7
2019-Jul-13 02:00N 58°41' W 136°11'612.5
2019-Jul-13 01:30N 58°46' W 136°20'612.6
2019-Jul-13 01:00N 58°49' W 136°30'1 0.2
2019-Jul-12 19:19N 58°50' W 136°31'714.3
2019-Jul-12 18:47N 58°46' W 136°20'519.0
2019-Jul-12 18:30N 58°42' W 136°12'917.3
2019-Jul-12 18:00N 58°35' W 136°03'713.7
2019-Jul-12 17:31N 58°28' W 136°02'5 9.6
2019-Jul-12 17:00N 58°23' W 135°59'612.1
2019-Jul-12 16:30N 58°19' W 136°08'2011.7
2019-Jul-12 14:45N 58°09' W 136°41'  
Track history (hours):
 
Tides and Currents Weather Stations Pressure Air Temp Water Temp Dewpoint Dewpoint Depression Visibility Wind Speed Wind Dir Waves Ship Positions

Island Princess

Operator: Princess Cruises

Last reported at 2019-Jul-22 14:30 UTC. Time now 2019-Jul-22 14:41 UTC.
Position N 58°30' W 136°03'.

Type: Passenger vessel. MMSI: 310384000.

Date/timePositionNaut miles runAvg speedWind from/ knotsBaromVisibWave heightAir tempDewpointWater temp
2019-Jul-22 14:30N 58°30' W 136°03'510.9
2019-Jul-22 14:00N 58°26' W 135°58'510.5
2019-Jul-22 13:30N 58°21' W 135°57'612.3
2019-Jul-22 13:00N 58°18' W 135°46'612.3
2019-Jul-22 12:30N 58°16' W 135°35'712.4
2019-Jul-22 11:58N 58°14' W 135°24'36 7.2
2019-Jul-22 07:00N 58°48' W 135°06'19 0.9 1021.7 5.4 14.012.315.0
2019-Jul-21 09:00N 58°30' W 134°54'24 0.9 300 / 31020.910.8 13.012.1
2019-Jul-20 06:35N 58°09' W 135°15'111.9
2019-Jul-20 06:29N 58°09' W 135°17'6 2.0
2019-Jul-20 03:27N 58°08' W 135°28'0 0.0
2019-Jul-20 02:57N 58°08' W 135°28'0 0.0
2019-Jul-20 02:21N 58°08' W 135°28'25711.3
2019-Jul-19 03:41N 54°22' W 131°46'422.4
2019-Jul-19 03:30N 54°22' W 131°39'1121.8
2019-Jul-19 03:00N 54°21' W 131°21'1020.5
2019-Jul-19 02:31N 54°18' W 131°04'1122.1
2019-Jul-19 02:00N 54°07' W 131°00'175.9
2019-Jul-19 02:00N 54°06' W 131°00'1019.8 230 / 101015.710.8 17.511.615.0
2019-Jul-19 01:30N 53°57' W 130°57'1020.8
2019-Jul-19 01:00N 53°46' W 130°53'1220.4
2019-Jul-19 00:24N 53°34' W 130°49'819.9
2019-Jul-19 00:00N 53°27' W 130°46'1220.6
2019-Jul-18 23:24N 53°15' W 130°38'8520.4
2019-Jul-18 19:13N 52°04' W 129°22'519.2
2019-Jul-18 18:57N 51°60' W 129°17'919.2
2019-Jul-18 18:30N 51°53' W 129°08'1019.6
2019-Jul-18 18:00N 51°45' W 128°59'1019.8
2019-Jul-18 17:30N 51°37' W 128°50'1019.8
2019-Jul-18 17:00N 51°29' W 128°41'1019.7
2019-Jul-18 16:30N 51°21' W 128°30'1019.7
2019-Jul-18 16:00N 51°14' W 128°20'1020.1
2019-Jul-18 15:30N 51°08' W 128°08'1020.4
2019-Jul-18 15:00N 51°02' W 127°54'815.1
2019-Jul-18 14:30N 50°57' W 127°45'1020.6
2019-Jul-18 14:00N 50°51' W 127°31'1121.5
2019-Jul-18 13:30N 50°47' W 127°16'1121.3
2019-Jul-18 13:00N 50°43' W 127°00'1020.3
2019-Jul-18 12:30N 50°37' W 126°47'914.7
2019-Jul-18 11:56N 50°31' W 126°38'3517.2
2019-Jul-18 09:55N 50°22' W 125°45'818.1
2019-Jul-18 09:29N 50°22' W 125°33'714.6
2019-Jul-18 09:00N 50°17' W 125°24'815.6
2019-Jul-18 08:30N 50°10' W 125°22'510.8
2019-Jul-18 08:00N 50°05' W 125°17'612.1
2019-Jul-18 07:30N 49°60' W 125°12'611.5
2019-Jul-18 07:00N 49°56' W 125°06'612.2
2019-Jul-18 06:30N 49°52' W 124°59'612.3
2019-Jul-18 06:00N 49°48' W 124°52'612.4
2019-Jul-18 05:30N 49°44' W 124°45'713.5
2019-Jul-18 05:00N 49°38' W 124°40'713.6
2019-Jul-18 04:30N 49°33' W 124°33'713.4
2019-Jul-18 04:00N 49°28' W 124°25'713.2
2019-Jul-18 03:30N 49°25' W 124°16'612.7
2019-Jul-18 03:00N 49°23' W 124°07'713.9
2019-Jul-18 02:31N 49°21' W 123°57'713.9
2019-Jul-18 02:01N 49°19' W 123°46'713.9
2019-Jul-18 01:30N 49°19' W 123°36'714.1
2019-Jul-18 01:00N 49°19' W 123°25'713.5
2019-Jul-18 00:30N 49°19' W 123°14'510.2
2019-Jul-18 00:00N 49°18' W 123°07'1 1.6
2019-Jul-17 23:26N 49°17' W 123°06'0 0.0
2019-Jul-17 22:56N 49°17' W 123°06'0 0.0
2019-Jul-17 22:26N 49°17' W 123°06'0 0.0
2019-Jul-17 21:56N 49°17' W 123°06'0 0.0
2019-Jul-17 21:20N 49°17' W 123°06'0 0.0
2019-Jul-17 20:56N 49°17' W 123°06'0 0.0
2019-Jul-17 20:26N 49°17' W 123°06'0 0.0
2019-Jul-17 19:58N 49°17' W 123°06'0 0.0
2019-Jul-17 19:28N 49°17' W 123°06'0 0.0
2019-Jul-17 18:58N 49°17' W 123°06'0 0.0
2019-Jul-17 18:28N 49°17' W 123°06'0 0.0
2019-Jul-17 17:58N 49°17' W 123°06'0 0.0
2019-Jul-17 17:28N 49°17' W 123°06'0 0.0
2019-Jul-17 16:58N 49°17' W 123°06'0 0.0
2019-Jul-17 16:28N 49°17' W 123°06'0 0.0
2019-Jul-17 15:58N 49°17' W 123°06'0 0.0
2019-Jul-17 15:28N 49°17' W 123°06'0 0.0
2019-Jul-17 14:58N 49°17' W 123°06'0 0.0
2019-Jul-17 14:28N 49°17' W 123°06'0 0.0
2019-Jul-17 14:00N 49°17' W 123°06'0 0.3
2019-Jul-17 13:30N 49°17' W 123°06'3 6.5
2019-Jul-17 13:00N 49°19' W 123°10'611.1
2019-Jul-17 12:30N 49°18' W 123°19'612.7
2019-Jul-17 12:00N 49°16' W 123°28'5 9.9
2019-Jul-17 11:30N 49°18' W 123°35'4 9.0
2019-Jul-17 11:01N 49°19' W 123°42'5 8.8
2019-Jul-17 10:30N 49°21' W 123°48'4 9.0
2019-Jul-17 10:01N 49°22' W 123°55'4 8.7
2019-Jul-17 09:30N 49°23' W 124°01'5 9.1
2019-Jul-17 09:00N 49°24' W 124°08'5 9.1
2019-Jul-17 08:30N 49°25' W 124°15'5 9.3
2019-Jul-17 08:00N 49°27' W 124°22'5 9.7
2019-Jul-17 07:30N 49°29' W 124°28'5 9.4
2019-Jul-17 07:00N 49°32' W 124°33'5 9.4
2019-Jul-17 06:30N 49°36' W 124°37'5 9.1
2019-Jul-17 06:01N 49°40' W 124°42'4 8.2
2019-Jul-17 05:30N 49°43' W 124°46'4 8.1
2019-Jul-17 05:00N 49°46' W 124°51'4 8.4
2019-Jul-17 04:30N 49°48' W 124°55'4 9.0
2019-Jul-17 04:00N 49°52' W 125°00'4 8.6
2019-Jul-17 03:30N 49°55' W 125°05'5 9.3
2019-Jul-17 02:59N 49°58' W 125°10'5 9.6
2019-Jul-17 02:30N 50°02' W 125°13'612.9
2019-Jul-17 02:01N 50°07' W 125°20'714.7
2019-Jul-17 01:30N 50°14' W 125°23'1715.7
2019-Jul-17 00:27N 50°22' W 125°45'7219.5
2019-Jul-16 20:44N 50°51' W 127°30'621.0
2019-Jul-16 20:26N 50°54' W 127°39'716.2
2019-Jul-16 20:00N 50°59' W 127°47'4 8.9
2019-Jul-16 19:30N 51°01' W 127°53'4 8.8
2019-Jul-16 19:00N 51°04' W 127°59'5 9.3
2019-Jul-16 18:30N 51°06' W 128°05'611.3
2019-Jul-16 18:01N 51°09' W 128°12'713.6
2019-Jul-16 17:30N 51°13' W 128°21'714.7
2019-Jul-16 17:00N 51°18' W 128°30'816.0
2019-Jul-16 16:30N 51°23' W 128°41'917.5
2019-Jul-16 16:00N 51°29' W 128°51'917.1
2019-Jul-16 15:30N 51°37' W 128°52'917.1
2019-Jul-16 15:00N 51°45' W 128°57'817.0
2019-Jul-16 14:30N 51°52' W 129°05'917.4
2019-Jul-16 14:00N 51°58' W 129°14'5299.2
2019-Jul-16 14:00N 51°54' W 129°12'1327.5 180 / 101016.710.8 16.014.417.0
2019-Jul-16 13:30N 52°05' W 129°24'918.5
2019-Jul-16 13:00N 52°12' W 129°34'918.6
2019-Jul-16 12:30N 52°19' W 129°44'1019.5
2019-Jul-16 12:00N 52°27' W 129°53'1121.5
2019-Jul-16 11:30N 52°36' W 130°02'1121.3
2019-Jul-16 11:00N 52°46' W 130°12'2820.2
2019-Jul-16 09:37N 53°10' W 130°34'319.6
2019-Jul-16 09:28N 53°13' W 130°37'920.4
2019-Jul-16 09:00N 53°21' W 130°44'1121.1
2019-Jul-16 08:30N 53°31' W 130°49'1020.9
2019-Jul-16 08:00N 53°41' W 130°53'1020.7
2019-Jul-16 07:30N 53°51' W 130°58'1020.6
2019-Jul-16 07:01N 54°01' W 131°01'1121.1
2019-Jul-16 06:30N 54°12' W 131°02'1121.9
2019-Jul-16 06:00N 54°22' W 131°07'1121.4
2019-Jul-16 05:30N 54°32' W 131°15'815.9
2019-Jul-16 05:00N 54°40' W 131°15'918.5
2019-Jul-16 04:30N 54°48' W 131°10'1917.4
2019-Jul-16 03:25N 55°07' W 131°09'65 4.5
2019-Jul-15 13:00N 55°54' W 132°30'6711.2 260 / 71018.5 5.4 15.013.717.0
2019-Jul-15 07:00N 56°24' W 134°18'7518.7 190 / 81021.8 5.4 13.011.312.0
2019-Jul-15 03:00N 57°36' W 133°42'60 1.3 310 / 41018.310.8 13.5 9.913.0
2019-Jul-13 06:22N 58°09' W 135°16'410.9
2019-Jul-13 06:00N 58°11' W 135°22'611.7
2019-Jul-13 05:30N 58°14' W 135°32'510.9
2019-Jul-13 05:00N 58°17' W 135°41'510.2
2019-Jul-13 04:30N 58°19' W 135°50'510.4
2019-Jul-13 04:00N 58°22' W 135°57'5 9.3
2019-Jul-13 03:30N 58°27' W 136°00'4 8.0
2019-Jul-13 03:00N 58°30' W 136°04'611.9
2019-Jul-13 02:30N 58°36' W 136°04'612.7
2019-Jul-13 02:00N 58°41' W 136°11'612.5
2019-Jul-13 01:30N 58°46' W 136°20'612.6
2019-Jul-13 01:00N 58°49' W 136°30'1 0.2
2019-Jul-12 19:19N 58°50' W 136°31'714.3
2019-Jul-12 18:47N 58°46' W 136°20'519.0
2019-Jul-12 18:30N 58°42' W 136°12'917.3
2019-Jul-12 18:00N 58°35' W 136°03'713.7
2019-Jul-12 17:31N 58°28' W 136°02'5 9.6
2019-Jul-12 17:00N 58°23' W 135°59'612.1
2019-Jul-12 16:30N 58°19' W 136°08'2011.7
2019-Jul-12 14:45N 58°09' W 136°41'  

Dump ship's entire track history